Terminal Aerodrome Forecast
Issued by NWS Sterling, VA

Current Version | Previous Version | Graphics & Text | Print | Product List | Glossary On
Versions: 1 2 3 4 5 6 7 8 9 10 11 12 13 14 15 16
000
FTUS41 KLWX 190900 AAA
TAFMRB
TAF AMD
KMRB 190903Z 1909/2006 00000KT 6SM -RA OVC070
     FM191000 15004KT P6SM OVC090
     FM191600 14007KT P6SM SCT070 OVC130
     FM200000 VRB03KT P6SM BKN060=

USA.gov is the U.S. government's official web portal to all federal, state and local government web resources and services.